Terminal Aerodrome Forecast
Issued by NWS Grand Forks, ND

Home | Current Version | Previous Version | Text Only | Print | Product List | Glossary On
Versions: 1 2 3 4 5 6 7 8 9 10 11 12 13 14 15 16 17
000
FTUS43 KFGF 012300
TAFFAR
TAF
KFAR 012326Z 0200/0224 VRB06KT P6SM SKC
     FM020600 VRB04KT P6SM SCT250
     FM021500 17009KT P6SM BKN120
     FM022200 34008KT P6SM OVC100=

USA.gov is the U.S. government's official web portal to all federal, state and local government web resources and services.